Time;durP1;ratioP1;P1;durP2;ratioP2;P2;SDS_P1;SDS_P2;PMS_P1;PMS_P2;Temp;Humidity;BMP_temperature;BMP_pressure;BME280_temperature;BME280_humidity;BME280_pressure;Samples;Min_cycle;Max_cycle;Signal;HPM_P1;HPM_P2
2022/08/10 00:01:40;;;;;;;0.65;0.40;;;21.60;70.30;;;;;;6138813;23;20005;-80
2022/08/10 00:04:06;;;;;;;0.77;0.30;;;21.50;70.50;;;;;;6163689;23;20343;-82
2022/08/10 00:06:32;;;;;;;0.70;0.30;;;21.40;70.30;;;;;;6137188;23;20010;-82
2022/08/10 00:08:57;;;;;;;0.57;0.32;;;21.40;70.50;;;;;;6163104;23;20013;-81
2022/08/10 00:11:23;;;;;;;0.68;0.30;;;21.40;70.70;;;;;;6164097;23;20008;-81
2022/08/10 00:13:50;;;;;;;0.60;0.40;;;21.40;70.90;;;;;;6160852;23;20002;-82
2022/08/10 00:16:16;;;;;;;0.73;0.38;;;21.30;71.00;;;;;;6162285;23;20008;-82
2022/08/10 00:18:42;;;;;;;1.10;0.40;;;21.30;71.00;;;;;;6135417;23;20069;-81
2022/08/10 00:21:09;;;;;;;0.70;0.30;;;21.30;71.30;;;;;;6157132;23;20466;-81
2022/08/10 00:23:36;;;;;;;0.88;0.40;;;21.30;71.40;;;;;;6162154;23;20092;-82
2022/08/10 00:26:02;;;;;;;0.98;0.35;;;21.20;71.70;;;;;;6161405;23;20033;-81
2022/08/10 00:28:28;;;;;;;4.85;0.50;;;21.20;71.80;;;;;;6162672;23;20013;-82
2022/08/10 00:30:53;;;;;;;1.10;0.40;;;21.20;72.00;;;;;;6161179;23;20009;-81
2022/08/10 00:33:19;;;;;;;1.33;0.50;;;21.20;71.90;;;;;;6135128;23;20049;-80
2022/08/10 00:35:45;;;;;;;1.27;0.65;;;21.10;72.00;;;;;;6135700;23;20050;-81
2022/08/10 00:38:11;;;;;;;0.57;0.30;;;21.10;72.20;;;;;;6163143;23;20053;-80
2022/08/10 00:40:37;;;;;;;1.33;0.30;;;21.10;72.30;;;;;;6136081;23;20008;-81
2022/08/10 00:43:04;;;;;;;0.93;0.50;;;21.00;72.30;;;;;;6163891;23;20006;-82
2022/08/10 00:45:29;;;;;;;1.70;1.05;;;21.00;73.10;;;;;;6134935;23;20780;-81
2022/08/10 00:47:55;;;;;;;1.45;0.40;;;21.00;72.60;;;;;;6161153;23;20028;-80
2022/08/10 00:50:21;;;;;;;0.90;0.38;;;20.90;72.90;;;;;;6135782;23;20013;-81
2022/08/10 00:52:47;;;;;;;1.00;0.50;;;20.90;73.10;;;;;;6161153;23;20013;-81
2022/08/10 00:55:13;;;;;;;0.77;0.40;;;20.90;73.10;;;;;;6161231;23;20007;-82
2022/08/10 00:57:39;;;;;;;1.60;0.55;;;20.90;73.30;;;;;;6162179;23;19998;-82
2022/08/10 01:00:06;;;;;;;1.67;0.40;;;20.90;73.30;;;;;;6161468;23;20002;-82
2022/08/10 01:02:32;;;;;;;1.15;0.40;;;20.90;73.50;;;;;;6161278;23;20005;-81
2022/08/10 01:05:01;;;;;;;1.02;0.38;;;20.90;73.60;;;;;;6136152;23;20009;-81
2022/08/10 01:07:58;;;;;;;1.73;0.50;;;20.80;73.80;;;;;;6135808;23;20008;-81
2022/08/10 01:10:46;;;;;;;0.88;0.40;;;20.70;73.80;;;;;;6157711;23;20002;-82
2022/08/10 01:13:21;;;;;;;1.38;0.50;;;20.70;74.10;;;;;;6104631;23;20028;-82
2022/08/10 01:15:59;;;;;;;2.03;0.38;;;20.70;74.20;;;;;;6129534;23;19998;-82
2022/08/10 01:18:55;;;;;;;1.05;0.40;;;20.60;74.30;;;;;;6129241;23;20024;-82
2022/08/10 01:21:39;;;;;;;0.75;0.43;;;20.60;74.40;;;;;;6093253;23;20013;-83
2022/08/10 01:24:39;;;;;;;1.88;0.40;;;20.60;74.60;;;;;;6129804;23;20097;-82
2022/08/10 01:27:37;;;;;;;1.92;0.50;;;20.60;74.70;;;;;;6043102;23;20009;-83
2022/08/10 01:30:09;;;;;;;1.23;0.40;;;20.60;74.90;;;;;;6130256;23;20050;-82
2022/08/10 01:32:39;;;;;;;;;;;20.50;74.90;;;;;;6130342;23;20002;-82
2022/08/10 01:35:10;;;;;;;0.82;0.43;;;20.50;75.10;;;;;;6129054;23;19908;-82
2022/08/10 01:37:42;;;;;;;0.85;0.40;;;20.50;75.30;;;;;;6130379;23;20009;-82
2022/08/10 01:40:12;;;;;;;0.55;0.30;;;20.50;75.20;;;;;;6129623;23;20010;-82
2022/08/10 01:42:41;;;;;;;1.05;0.32;;;20.40;75.40;;;;;;6129779;23;19998;-82
2022/08/10 01:45:09;;;;;;;0.88;0.32;;;20.40;75.70;;;;;;6128279;23;20010;-82
2022/08/10 01:50:39;;;;;;;1.00;0.40;;;20.40;75.90;;;;;;6129424;23;20030;-82
2022/08/10 01:53:09;;;;;;;0.73;0.40;;;20.40;76.00;;;;;;6130147;23;20034;-82
2022/08/10 01:55:37;;;;;;;1.52;0.50;;;20.30;76.70;;;;;;6103675;23;20440;-82
2022/08/10 01:58:05;;;;;;;1.00;0.40;;;20.30;76.20;;;;;;6129766;23;20009;-82
2022/08/10 02:00:33;;;;;;;1.85;0.40;;;20.30;76.30;;;;;;6103559;23;20010;-82
2022/08/10 02:03:01;;;;;;;0.80;0.50;;;20.30;76.50;;;;;;6102943;23;20033;-82
2022/08/10 02:05:30;;;;;;;1.30;0.50;;;20.20;76.60;;;;;;6103257;23;20010;-82
2022/08/10 02:07:58;;;;;;;1.25;0.50;;;20.20;76.70;;;;;;6130219;23;20002;-82
2022/08/10 02:10:26;;;;;;;0.98;0.38;;;20.20;76.70;;;;;;6103622;23;20017;-82
2022/08/10 02:12:55;;;;;;;0.80;0.47;;;20.10;76.80;;;;;;6104147;23;20014;-82
2022/08/10 02:15:23;;;;;;;1.33;0.50;;;20.20;77.00;;;;;;6129574;23;20005;-82
2022/08/10 02:17:57;;;;;;;1.67;0.40;;;20.10;77.00;;;;;;6104117;23;20006;-82
2022/08/10 02:20:26;;;;;;;0.68;0.30;;;20.20;77.10;;;;;;6098286;23;20006;-82
2022/08/10 02:22:56;;;;;;;0.85;0.38;;;20.10;77.30;;;;;;6127153;23;20067;-82
2022/08/10 02:25:24;;;;;;;0.82;0.40;;;20.10;77.50;;;;;;6127422;23;20006;-82
2022/08/10 02:27:51;;;;;;;1.00;0.40;;;20.00;77.60;;;;;;6129210;23;20010;-82
2022/08/10 02:30:17;;;;;;;3.10;0.57;;;19.90;77.70;;;;;;6103763;23;20070;-82
2022/08/10 02:32:44;;;;;;;0.70;0.40;;;20.00;77.80;;;;;;6103803;23;20441;-82
2022/08/10 02:35:12;;;;;;;0.98;0.40;;;20.00;78.00;;;;;;6103130;23;20025;-82
2022/08/10 02:37:41;;;;;;;3.17;0.50;;;19.90;78.00;;;;;;6127696;23;20377;-83
2022/08/10 02:40:08;;;;;;;0.80;0.52;;;19.90;78.00;;;;;;6130392;23;20009;-82
2022/08/10 02:42:58;;;;;;;0.82;0.30;;;19.90;78.00;;;;;;6128926;23;20005;-82
2022/08/10 02:45:47;;;;;;;0.88;0.50;;;19.90;78.50;;;;;;6128837;23;20006;-82
2022/08/10 02:48:27;;;;;;;0.95;0.40;;;19.90;78.10;;;;;;6128774;23;20084;-82
2022/08/10 02:51:01;;;;;;;1.60;0.40;;;19.90;78.10;;;;;;6102730;23;20076;-82
2022/08/10 02:53:26;;;;;;;1.08;0.50;;;19.80;78.00;;;;;;6102519;23;20013;-82
2022/08/10 02:56:09;;;;;;;1.25;0.40;;;19.80;78.20;;;;;;6128082;23;20006;-82
2022/08/10 02:58:42;;;;;;;1.00;0.40;;;19.80;78.30;;;;;;6128940;23;19998;-82
2022/08/10 03:01:10;;;;;;;5.43;0.50;;;19.80;78.40;;;;;;6102388;23;20010;-82
2022/08/10 03:04:05;;;;;;;2.20;0.60;;;19.70;78.40;;;;;;6102073;23;20010;-82
2022/08/10 03:06:40;;;;;;;1.20;0.50;;;19.70;78.50;;;;;;6087723;23;20016;-82
2022/08/10 03:09:09;;;;;;;3.05;0.50;;;19.70;78.50;;;;;;6129200;23;20512;-82
2022/08/10 03:11:38;;;;;;;1.60;0.40;;;19.70;78.70;;;;;;6130185;23;20010;-82
2022/08/10 03:14:07;;;;;;;1.13;0.47;;;19.70;78.70;;;;;;6105370;23;20092;-83
2022/08/10 03:16:33;;;;;;;1.58;0.40;;;19.60;78.80;;;;;;6130648;23;20014;-82
2022/08/10 03:19:03;;;;;;;2.90;0.60;;;19.60;78.80;;;;;;6103986;23;20006;-82
2022/08/10 03:21:31;;;;;;;0.90;0.40;;;19.70;78.70;;;;;;6127246;23;20002;-82
2022/08/10 03:24:01;;;;;;;0.80;0.40;;;19.60;78.80;;;;;;6103700;23;20010;-82
2022/08/10 03:26:30;;;;;;;0.95;0.40;;;19.60;78.80;;;;;;6104971;23;20026;-82
2022/08/10 03:28:57;;;;;;;1.23;0.50;;;19.60;78.90;;;;;;6130024;23;20006;-82
2022/08/10 03:31:27;;;;;;;1.88;0.65;;;19.60;79.00;;;;;;6131472;23;20013;-82
2022/08/10 03:33:54;;;;;;;1.00;0.40;;;19.50;79.20;;;;;;6106067;23;20037;-82
2022/08/10 03:36:20;;;;;;;0.82;0.50;;;19.50;79.20;;;;;;6105036;23;19998;-82
2022/08/10 03:38:50;;;;;;;1.00;0.50;;;19.50;79.20;;;;;;6131486;23;20455;-80
2022/08/10 03:41:35;;;;;;;2.38;0.60;;;19.50;79.30;;;;;;6131122;23;20005;-80
2022/08/10 03:44:03;;;;;;;1.58;0.60;;;19.40;79.10;;;;;;6104312;23;20384;-80
2022/08/10 03:46:30;;;;;;;0.90;0.50;;;19.40;79.10;;;;;;6130535;23;20038;-79
2022/08/10 03:49:00;;;;;;;1.20;0.50;;;19.40;79.20;;;;;;6136159;23;20534;-80
2022/08/10 03:51:27;;;;;;;0.73;0.50;;;19.40;79.10;;;;;;6110532;23;20097;-79
2022/08/10 03:53:53;;;;;;;1.30;0.43;;;19.40;79.10;;;;;;6131385;23;20017;-80
2022/08/10 03:56:19;;;;;;;1.05;0.43;;;19.40;79.10;;;;;;6129772;23;20006;-79
2022/08/10 03:58:45;;;;;;;1.08;0.60;;;19.40;79.20;;;;;;6130135;23;20006;-80
2022/08/10 04:01:12;;;;;;;1.63;0.50;;;19.40;79.10;;;;;;6129343;23;20006;-79
2022/08/10 04:03:38;;;;;;;0.60;0.40;;;19.30;79.20;;;;;;6130363;23;20009;-79
2022/08/10 04:06:04;;;;;;;0.82;0.40;;;19.30;79.00;;;;;;6131282;23;20010;-80
2022/08/10 04:08:30;;;;;;;1.42;0.57;;;19.30;79.20;;;;;;6128665;23;20013;-80
2022/08/10 04:10:55;;;;;;;1.05;0.45;;;19.30;79.10;;;;;;6103674;23;20147;-79
2022/08/10 04:13:21;;;;;;;1.40;0.50;;;19.30;79.40;;;;;;6128126;23;20010;-79
2022/08/10 04:15:48;;;;;;;1.23;0.40;;;19.20;79.40;;;;;;6102246;23;20010;-80
2022/08/10 04:18:13;;;;;;;1.38;0.60;;;19.20;79.50;;;;;;6128939;23;20002;-79
2022/08/10 04:20:48;;;;;;;0.57;0.40;;;19.30;79.50;;;;;;6099972;23;20006;-80
2022/08/10 04:23:26;;;;;;;1.88;0.60;;;19.20;79.60;;;;;;6129449;23;20001;-80
2022/08/10 04:25:53;;;;;;;0.80;0.40;;;19.20;79.50;;;;;;6129588;23;20318;-79
2022/08/10 04:28:18;;;;;;;1.50;0.90;;;19.20;79.50;;;;;;6129751;23;20016;-80
2022/08/10 04:30:46;;;;;;;2.10;0.60;;;19.30;79.50;;;;;;6129957;23;20034;-79
2022/08/10 04:33:16;;;;;;;1.73;0.70;;;19.30;79.20;;;;;;6103588;23;20069;-79
2022/08/10 04:35:44;;;;;;;2.50;1.00;;;19.30;79.90;;;;;;6103208;23;20012;-79
2022/08/10 04:38:11;;;;;;;2.83;1.13;;;19.30;79.10;;;;;;6103207;23;20009;-80
2022/08/10 04:40:37;;;;;;;3.45;1.35;;;19.40;78.70;;;;;;6103115;23;20053;-79
2022/08/10 04:43:05;;;;;;;3.83;1.48;;;19.40;78.80;;;;;;6129484;23;20006;-80
2022/08/10 04:45:31;;;;;;;7.47;2.00;;;19.40;78.90;;;;;;6129317;23;20009;-80
2022/08/10 04:47:57;;;;;;;3.72;1.80;;;19.40;78.70;;;;;;6127886;23;20073;-79
2022/08/10 04:50:22;;;;;;;4.78;1.40;;;19.40;78.60;;;;;;6127438;23;20345;-79
2022/08/10 04:52:48;;;;;;;3.95;1.92;;;19.50;78.50;;;;;;6129148;23;20013;-79
2022/08/10 04:55:14;;;;;;;4.30;1.52;;;19.50;78.60;;;;;;6101539;23;20507;-80
2022/08/10 04:57:39;;;;;;;5.50;1.70;;;19.50;78.50;;;;;;6129265;23;20002;-80
2022/08/10 05:00:06;;;;;;;5.65;1.50;;;19.60;78.30;;;;;;6128776;23;20012;-80
2022/08/10 05:02:31;;;;;;;3.30;1.10;;;19.60;78.50;;;;;;6129031;23;19998;-80
2022/08/10 05:04:57;;;;;;;4.82;1.58;;;19.70;78.60;;;;;;6127785;23;20002;-80
2022/08/10 05:07:23;;;;;;;5.20;1.13;;;19.70;78.50;;;;;;6128469;23;20441;-79
2022/08/10 05:09:49;;;;;;;2.85;1.00;;;19.70;78.60;;;;;;6125456;23;20001;-79
2022/08/10 05:12:15;;;;;;;1.95;0.65;;;19.80;78.40;;;;;;6101108;23;20038;-79
2022/08/10 05:14:41;;;;;;;2.55;1.00;;;19.80;78.40;;;;;;6101073;23;20013;-79
2022/08/10 05:17:06;;;;;;;2.00;0.60;;;19.90;78.20;;;;;;6127461;23;20049;-78
2022/08/10 05:19:32;;;;;;;1.40;0.50;;;19.90;78.20;;;;;;6102096;23;20056;-79
2022/08/10 05:21:58;;;;;;;3.22;0.60;;;20.00;78.20;;;;;;6121954;23;20010;-79
2022/08/10 05:24:23;;;;;;;2.63;0.70;;;20.10;77.40;;;;;;6127937;23;20002;-79
2022/08/10 05:26:49;;;;;;;3.20;0.70;;;20.10;77.40;;;;;;6127806;23;20009;-79
2022/08/10 05:29:14;;;;;;;1.83;0.80;;;20.20;77.60;;;;;;6102060;23;20006;-80
2022/08/10 05:31:40;;;;;;;1.13;0.40;;;20.20;77.40;;;;;;6101355;23;20010;-80
2022/08/10 05:34:06;;;;;;;2.10;0.75;;;20.20;77.20;;;;;;6127379;23;20024;-80
2022/08/10 05:36:32;;;;;;;2.22;0.50;;;20.30;77.10;;;;;;6127706;23;20282;-79
2022/08/10 05:38:59;;;;;;;3.20;0.55;;;20.30;76.90;;;;;;6127869;23;20531;-80
2022/08/10 05:41:27;;;;;;;1.13;0.50;;;20.30;77.20;;;;;;6128706;23;19998;-80
2022/08/10 05:43:53;;;;;;;1.13;0.40;;;20.40;77.10;;;;;;6128371;23;19998;-79
2022/08/10 05:46:19;;;;;;;1.27;0.50;;;20.50;76.50;;;;;;6128753;23;20006;-81
2022/08/10 05:48:45;;;;;;;2.33;0.52;;;20.60;76.50;;;;;;6128536;23;20006;-81
2022/08/10 05:51:11;;;;;;;1.58;0.50;;;20.70;76.50;;;;;;6130775;23;20002;-81
2022/08/10 05:53:37;;;;;;;2.38;0.63;;;20.70;76.10;;;;;;6130949;23;20006;-81
2022/08/10 05:56:05;;;;;;;0.85;0.35;;;20.70;76.00;;;;;;6104538;23;20006;-82
2022/08/10 05:58:31;;;;;;;0.90;0.40;;;20.90;75.50;;;;;;6129889;23;20002;-81
2022/08/10 06:00:59;;;;;;;1.02;0.50;;;20.90;75.50;;;;;;6103981;23;20060;-81
2022/08/10 06:03:32;;;;;;;1.30;0.47;;;20.90;75.70;;;;;;6126291;23;20009;-80
2022/08/10 06:05:59;;;;;;;1.85;0.50;;;21.00;75.30;;;;;;6127388;23;20033;-82
2022/08/10 06:08:30;;;;;;;0.95;0.47;;;21.10;75.20;;;;;;6102101;23;20006;-81
2022/08/10 06:10:58;;;;;;;2.30;0.80;;;21.20;75.00;;;;;;6102068;23;20033;-83
2022/08/10 06:16:12;;;;;;;2.05;0.50;;;21.40;75.00;;;;;;6126881;23;20016;-80
2022/08/10 06:18:38;;;;;;;2.50;1.10;;;21.30;74.20;;;;;;6129712;23;20006;-81
2022/08/10 06:21:05;;;;;;;1.35;0.50;;;21.30;73.80;;;;;;6129079;23;20002;-81
2022/08/10 06:23:33;;;;;;;1.42;0.47;;;21.40;73.30;;;;;;6128455;23;20457;-81
2022/08/10 06:25:59;;;;;;;1.33;0.47;;;21.50;73.50;;;;;;6122758;23;20010;-81
2022/08/10 06:28:29;;;;;;;1.60;0.55;;;21.60;73.50;;;;;;6127561;23;20005;-81
2022/08/10 06:30:58;;;;;;;0.90;0.43;;;21.60;73.50;;;;;;6129433;23;20006;-81
2022/08/10 06:33:25;;;;;;;1.88;0.50;;;21.60;73.30;;;;;;6123693;23;20038;-81
2022/08/10 06:35:53;;;;;;;1.05;0.50;;;21.70;73.00;;;;;;6130172;23;20234;-81
2022/08/10 06:38:22;;;;;;;1.02;0.50;;;21.70;73.00;;;;;;6131443;23;20009;-82
2022/08/10 06:40:51;;;;;;;2.63;0.50;;;21.70;73.00;;;;;;6129530;23;19998;-82
2022/08/10 06:43:19;;;;;;;1.00;0.40;;;21.80;72.60;;;;;;6105779;23;20080;-83
2022/08/10 06:46:07;;;;;;;2.42;0.45;;;21.90;72.60;;;;;;6103873;23;20005;-81
2022/08/10 06:48:37;;;;;;;1.13;0.50;;;21.90;72.40;;;;;;6130577;23;20039;-83
2022/08/10 06:51:12;;;;;;;1.25;0.50;;;22.00;72.80;;;;;;6128695;23;20010;-81
2022/08/10 06:53:47;;;;;;;4.50;0.70;;;22.10;72.80;;;;;;6105391;23;20041;-82
2022/08/10 06:56:17;;;;;;;1.02;0.40;;;22.20;72.60;;;;;;6133633;23;20002;-82
2022/08/10 06:58:56;;;;;;;1.67;0.50;;;22.30;72.10;;;;;;6132598;23;19998;-82
2022/08/10 07:01:29;;;;;;;1.58;0.70;;;22.30;72.30;;;;;;6132920;23;20065;-81
2022/08/10 07:04:10;;;;;;;1.15;0.47;;;22.30;72.00;;;;;;6132496;23;20061;-83
2022/08/10 07:06:43;;;;;;;0.70;0.32;;;22.40;71.70;;;;;;6129813;23;20005;-81
2022/08/10 07:09:15;;;;;;;1.55;0.40;;;22.50;71.60;;;;;;6130179;23;20065;-82
2022/08/10 07:11:43;;;;;;;0.80;0.40;;;22.70;71.40;;;;;;6138695;23;20013;-83
2022/08/10 07:14:11;;;;;;;3.35;0.52;;;22.80;71.50;;;;;;6160745;23;20024;-82
2022/08/10 07:16:39;;;;;;;0.75;0.40;;;22.90;71.20;;;;;;6159940;23;19998;-83
2022/08/10 07:19:08;;;;;;;0.73;0.30;;;22.90;71.40;;;;;;6161761;23;20061;-83
2022/08/10 07:21:34;;;;;;;1.10;0.52;;;23.00;70.80;;;;;;6158113;23;20073;-83
2022/08/10 07:24:01;;;;;;;1.15;0.40;;;23.10;70.70;;;;;;6159566;23;20005;-82
2022/08/10 07:26:29;;;;;;;0.90;0.40;;;23.30;70.70;;;;;;6133576;23;20040;-82
2022/08/10 07:28:56;;;;;;;0.82;0.30;;;23.40;70.00;;;;;;6133905;23;20476;-83
2022/08/10 07:31:23;;;;;;;0.85;0.25;;;23.50;70.10;;;;;;6161054;23;20017;-83
2022/08/10 07:33:55;;;;;;;0.52;0.20;;;23.60;70.20;;;;;;6157199;23;20008;-82
2022/08/10 07:36:21;;;;;;;;;;;23.70;70.20;;;;;;6161454;23;20010;-85
2022/08/10 07:38:50;;;;;;;1.10;0.38;;;23.70;69.70;;;;;;6131187;23;19937;-83
2022/08/10 07:41:18;;;;;;;1.25;0.50;;;23.80;69.40;;;;;;6157741;23;20420;-83
2022/08/10 07:43:45;;;;;;;1.30;0.32;;;23.90;69.20;;;;;;6159879;23;20049;-82
2022/08/10 07:46:13;;;;;;;1.15;0.22;;;24.20;68.80;;;;;;6159487;23;20006;-83
2022/08/10 07:48:49;;;;;;;0.63;0.30;;;24.20;68.50;;;;;;6158379;23;20009;-83
2022/08/10 07:51:18;;;;;;;1.23;0.50;;;24.30;69.30;;;;;;6134143;23;20041;-83
2022/08/10 07:53:54;;;;;;;1.00;0.40;;;24.40;68.50;;;;;;6135364;23;20029;-84
2022/08/10 07:56:27;;;;;;;4.18;0.50;;;24.40;68.00;;;;;;6160048;23;20009;-85
2022/08/10 07:59:04;;;;;;;1.15;0.40;;;24.40;67.90;;;;;;6130852;23;19997;-84
2022/08/10 08:01:33;;;;;;;0.68;0.45;;;24.60;68.20;;;;;;6156866;23;20006;-85
2022/08/10 08:04:00;;;;;;;0.90;0.30;;;24.70;67.80;;;;;;6129692;23;20084;-84
2022/08/10 08:06:29;;;;;;;0.73;0.38;;;24.80;67.30;;;;;;6132701;23;20088;-85
2022/08/10 08:08:57;;;;;;;0.47;0.30;;;24.90;67.20;;;;;;6158613;23;20021;-85
2022/08/10 08:11:23;;;;;;;2.05;0.55;;;25.00;67.30;;;;;;6158386;23;20005;-84
2022/08/10 08:13:50;;;;;;;0.68;0.40;;;25.10;66.80;;;;;;6160523;23;20001;-86
2022/08/10 08:16:19;;;;;;;0.60;0.30;;;25.10;66.80;;;;;;6135026;23;20524;-85
2022/08/10 08:18:47;;;;;;;2.22;0.80;;;25.10;66.40;;;;;;6161660;23;20057;-85
2022/08/10 08:21:14;;;;;;;1.00;0.40;;;25.20;66.40;;;;;;6135524;23;20005;-86
2022/08/10 08:23:41;;;;;;;0.73;0.40;;;25.40;65.70;;;;;;6163192;23;20052;-85
2022/08/10 08:26:09;;;;;;;1.17;0.38;;;25.50;65.80;;;;;;6162938;23;20009;-85
2022/08/10 08:28:36;;;;;;;0.98;0.40;;;25.50;66.40;;;;;;6162295;23;20087;-86
2022/08/10 08:31:03;;;;;;;0.88;0.35;;;25.50;66.40;;;;;;6134048;23;20140;-85
2022/08/10 08:33:30;;;;;;;0.63;0.20;;;25.80;65.40;;;;;;6136096;23;20009;-85
2022/08/10 08:35:58;;;;;;;1.58;0.30;;;25.90;64.80;;;;;;6160674;23;19997;-86
2022/08/10 08:38:25;;;;;;;2.60;0.30;;;25.90;63.80;;;;;;6161365;23;20333;-86
2022/08/10 08:41:14;;;;;;;0.95;0.30;;;25.70;64.10;;;;;;6156565;23;20002;-85
2022/08/10 08:44:34;;;;;;;1.35;0.40;;;25.90;64.10;;;;;;6131852;23;20020;-85
2022/08/10 08:47:20;;;;;;;1.98;0.40;;;26.10;63.60;;;;;;6017547;23;20126;-85
2022/08/10 08:50:06;;;;;;;1.52;0.40;;;26.30;62.60;;;;;;6133209;23;20020;-85
2022/08/10 08:53:06;;;;;;;0.95;0.30;;;26.40;62.10;;;;;;6159236;23;20012;-85
2022/08/10 08:55:38;;;;;;;2.15;0.40;;;26.40;61.90;;;;;;6161068;23;20006;-85
2022/08/10 08:58:10;;;;;;;1.15;0.40;;;26.50;61.90;;;;;;6136676;23;20006;-85
2022/08/10 09:00:49;;;;;;;1.00;0.20;;;26.50;61.50;;;;;;6132781;23;20006;-85
2022/08/10 09:03:49;;;;;;;1.08;0.40;;;26.30;60.80;;;;;;6134264;23;20025;-85
2022/08/10 09:06:28;;;;;;;1.13;0.40;;;26.40;61.10;;;;;;6159604;23;20016;-85
2022/08/10 09:09:02;;;;;;;0.68;0.30;;;26.60;61.10;;;;;;6160578;23;20005;-85
2022/08/10 09:12:10;;;;;;;0.75;0.40;;;26.70;61.90;;;;;;6159221;23;20062;-85
2022/08/10 09:14:47;;;;;;;1.30;0.40;;;26.90;61.50;;;;;;6158229;23;20066;-85
2022/08/10 09:17:37;;;;;;;0.77;0.30;;;26.90;61.60;;;;;;6158312;23;20002;-86
2022/08/10 09:20:40;;;;;;;1.38;0.30;;;27.20;61.20;;;;;;6134164;23;20005;-85
2022/08/10 09:23:33;;;;;;;1.02;0.38;;;27.30;60.40;;;;;;6131665;23;20522;-85
2022/08/10 09:26:07;;;;;;;1.08;0.40;;;27.60;60.10;;;;;;6136369;23;20620;-86
2022/08/10 09:28:39;;;;;;;0.75;0.30;;;27.70;57.70;;;;;;6137198;23;20040;-85
2022/08/10 09:31:07;;;;;;;1.98;0.30;;;27.70;58.00;;;;;;6164442;23;19998;-85
2022/08/10 09:33:54;;;;;;;0.43;0.20;;;27.50;58.50;;;;;;6164032;23;20009;-86
2022/08/10 09:36:47;;;;;;;0.50;0.28;;;27.80;59.60;;;;;;6136113;23;19998;-85
2022/08/10 09:39:26;;;;;;;0.40;0.30;;;27.90;58.90;;;;;;6136859;23;20005;-86
2022/08/10 09:42:16;;;;;;;0.63;0.30;;;28.00;58.50;;;;;;6136347;23;20005;-86
2022/08/10 09:44:43;;;;;;;0.85;0.30;;;28.20;57.40;;;;;;6159853;23;20023;-85
2022/08/10 09:47:17;;;;;;;0.98;0.38;;;28.20;57.60;;;;;;6155361;23;20009;-85
2022/08/10 09:50:13;;;;;;;0.40;0.20;;;28.30;57.90;;;;;;6158783;23;20007;-85
2022/08/10 09:53:07;;;;;;;0.20;0.20;;;28.60;58.20;;;;;;6131966;23;20352;-86
2022/08/10 09:55:44;;;;;;;1.73;0.38;;;28.50;58.00;;;;;;6158145;23;20445;-83
2022/08/10 09:58:41;;;;;;;1.27;0.38;;;28.70;57.80;;;;;;6159009;23;20001;-85
2022/08/10 10:01:16;;;;;;;0.40;0.20;;;28.30;57.10;;;;;;6156925;23;20025;-85
2022/08/10 10:03:58;;;;;;;1.42;0.20;;;28.40;55.60;;;;;;6129692;23;20339;-86
2022/08/10 10:06:31;;;;;;;0.77;0.20;;;28.40;54.80;;;;;;6127423;23;20453;-85
2022/08/10 10:09:19;;;;;;;1.15;0.20;;;28.50;55.50;;;;;;6129227;23;20017;-85
2022/08/10 10:12:15;;;;;;;0.80;0.30;;;28.80;55.20;;;;;;6153623;23;20045;-85
2022/08/10 10:15:19;;;;;;;0.68;0.30;;;28.90;55.00;;;;;;6156438;23;20494;-85
2022/08/10 10:18:12;;;;;;;0.80;0.30;;;28.70;54.50;;;;;;6130345;23;20036;-85
2022/08/10 10:21:04;;;;;;;0.50;0.20;;;28.40;55.60;;;;;;6157896;23;20026;-85
2022/08/10 10:24:04;;;;;;;3.05;0.38;;;28.40;55.70;;;;;;6157918;23;20029;-85
2022/08/10 10:26:52;;;;;;;0.80;0.30;;;28.50;55.50;;;;;;6156265;23;20487;-85
2022/08/10 10:29:46;;;;;;;1.00;0.30;;;28.90;55.60;;;;;;6156467;23;20009;-83
2022/08/10 10:32:34;;;;;;;0.57;0.20;;;29.10;55.40;;;;;;6155901;23;20005;-84
2022/08/10 10:35:15;;;;;;;1.05;0.30;;;29.40;55.00;;;;;;6128455;23;20002;-84
2022/08/10 10:37:43;;;;;;;0.70;0.20;;;29.40;54.90;;;;;;6156336;23;20006;-84
2022/08/10 10:40:09;;;;;;;1.58;0.40;;;29.60;55.30;;;;;;6129317;23;20097;-84
2022/08/10 10:43:26;;;;;;;1.38;0.30;;;29.50;55.00;;;;;;6156546;23;20025;-84
2022/08/10 10:46:13;;;;;;;0.65;0.30;;;29.50;54.20;;;;;;6092106;23;20037;-83
2022/08/10 10:49:16;;;;;;;0.80;0.50;;;29.70;54.50;;;;;;6131814;23;20010;-84
2022/08/10 10:52:12;;;;;;;1.08;0.22;;;29.50;54.60;;;;;;6159237;23;20005;-84
2022/08/10 10:54:58;;;;;;;0.47;0.30;;;29.10;54.20;;;;;;6156520;23;20001;-84
2022/08/10 10:57:38;;;;;;;0.43;0.38;;;29.00;54.70;;;;;;6130192;23;20337;-84
2022/08/10 11:00:11;;;;;;;0.68;0.20;;;29.30;54.70;;;;;;6156411;23;20076;-84
2022/08/10 11:03:22;;;;;;;0.50;0.20;;;29.50;53.80;;;;;;6157032;23;20389;-84
2022/08/10 11:05:50;;;;;;;0.55;0.20;;;29.50;54.10;;;;;;6156317;23;20336;-84
2022/08/10 11:08:22;;;;;;;0.50;0.20;;;29.60;53.40;;;;;;6156577;23;20072;-84
2022/08/10 11:10:53;;;;;;;1.05;0.40;;;30.10;53.10;;;;;;6151680;23;20076;-84
2022/08/10 11:13:27;;;;;;;2.40;0.40;;;30.40;52.10;;;;;;6156587;23;20052;-84
2022/08/10 11:16:17;;;;;;;0.50;0.20;;;30.20;51.20;;;;;;6130257;23;20006;-84
2022/08/10 11:18:55;;;;;;;0.38;0.20;;;30.10;52.20;;;;;;6158302;23;19998;-85
2022/08/10 11:21:30;;;;;;;0.80;0.30;;;30.30;52.60;;;;;;6133074;23;20052;-84
2022/08/10 11:24:15;;;;;;;0.88;0.30;;;30.40;51.70;;;;;;6131254;23;20117;-84
2022/08/10 11:26:48;;;;;;;1.30;0.30;;;30.30;51.70;;;;;;6157000;23;20032;-84
2022/08/10 11:29:37;;;;;;;0.55;0.20;;;30.40;52.30;;;;;;6131082;23;20037;-84
2022/08/10 11:32:11;;;;;;;0.22;0.13;;;30.70;53.10;;;;;;6158935;23;20028;-84
2022/08/10 11:35:00;;;;;;;0.50;0.20;;;31.00;52.80;;;;;;6134795;23;20002;-85
2022/08/10 11:37:36;;;;;;;0.90;0.20;;;30.90;52.30;;;;;;6166888;23;19997;-86
2022/08/10 11:40:28;;;;;;;0.47;0.20;;;31.10;52.60;;;;;;6166941;23;20009;-85
2022/08/10 11:43:08;;;;;;;0.50;0.20;;;31.30;51.50;;;;;;6166426;23;19998;-85
2022/08/10 11:45:36;;;;;;;0.30;0.20;;;31.40;50.90;;;;;;6166450;23;20003;-85
2022/08/10 11:48:17;;;;;;;1.00;0.30;;;31.60;51.30;;;;;;6139862;23;20013;-86
2022/08/10 11:50:59;;;;;;;0.32;0.25;;;31.30;51.60;;;;;;6137427;23;20455;-85
2022/08/10 11:53:52;;;;;;;0.63;0.20;;;31.00;51.20;;;;;;6161542;23;20007;-86
2022/08/10 11:56:28;;;;;;;0.43;0.20;;;30.80;51.50;;;;;;6159839;23;19994;-85
2022/08/10 12:01:44;;;;;;;0.40;0.20;;;31.10;51.50;;;;;;6162006;23;20012;-85
2022/08/10 12:04:15;;;;;;;0.68;0.30;;;31.00;50.80;;;;;;6129085;23;20365;-85
2022/08/10 12:06:42;;;;;;;1.65;0.40;;;30.90;50.90;;;;;;6156907;23;20341;-85
2022/08/10 12:09:10;;;;;;;1.25;0.20;;;31.10;50.70;;;;;;6135753;23;20006;-84
2022/08/10 12:11:36;;;;;;;1.02;0.30;;;31.10;50.60;;;;;;6156749;23;20013;-84
2022/08/10 12:14:17;;;;;;;0.32;0.20;;;31.50;51.20;;;;;;6130414;23;20088;-84
2022/08/10 12:16:47;;;;;;;0.63;0.30;;;31.80;50.90;;;;;;6128970;23;20049;-84
2022/08/10 12:19:32;;;;;;;;;;;32.00;50.20;;;;;;6155842;23;20056;-85
2022/08/10 12:22:10;;;;;;;0.32;0.20;;;32.30;50.60;;;;;;6153482;23;19901;-85
2022/08/10 12:24:44;;;;;;;0.80;0.20;;;32.30;49.40;;;;;;6129498;23;20009;-84
2022/08/10 12:27:38;;;;;;;0.57;0.22;;;32.20;50.00;;;;;;6131045;23;20432;-85
2022/08/10 12:30:07;;;;;;;0.80;0.30;;;32.30;49.90;;;;;;6131425;23;20001;-84
2022/08/10 12:32:54;;;;;;;0.45;0.20;;;32.30;49.30;;;;;;6154542;23;20056;-85
2022/08/10 12:35:31;;;;;;;0.73;0.20;;;32.40;49.70;;;;;;6129938;23;20010;-84
2022/08/10 12:38:03;;;;;;;0.85;0.22;;;32.60;49.60;;;;;;6157765;23;20435;-84
2022/08/10 12:40:33;;;;;;;1.75;0.30;;;32.70;49.30;;;;;;6155579;23;20008;-84
2022/08/10 12:43:09;;;;;;;1.00;0.20;;;32.70;49.70;;;;;;6154020;23;20324;-85
2022/08/10 12:45:41;;;;;;;0.90;0.25;;;32.90;49.30;;;;;;6155538;23;20016;-85
2022/08/10 12:48:28;;;;;;;0.50;0.20;;;33.10;49.70;;;;;;6132796;23;20025;-84
2022/08/10 12:51:29;;;;;;;0.55;0.30;;;33.40;49.00;;;;;;6129172;23;20499;-85
2022/08/10 12:54:03;;;;;;;1.02;0.38;;;33.50;48.70;;;;;;6093512;23;20016;-85
2022/08/10 12:56:33;;;;;;;0.50;0.22;;;33.40;48.80;;;;;;6159814;23;20001;-84
2022/08/10 12:58:59;;;;;;;0.60;0.20;;;33.30;48.90;;;;;;6137078;23;20012;-84
2022/08/10 13:01:33;;;;;;;0.63;0.30;;;33.80;48.20;;;;;;6162842;23;20297;-84
2022/08/10 13:04:07;;;;;;;0.85;0.30;;;33.50;48.10;;;;;;6137310;23;20001;-85
2022/08/10 13:06:39;;;;;;;0.50;0.20;;;33.40;49.40;;;;;;6157865;23;20481;-85
2022/08/10 13:09:08;;;;;;;0.90;0.30;;;33.40;48.40;;;;;;6157063;23;20033;-85
2022/08/10 13:11:37;;;;;;;0.40;0.20;;;33.70;48.00;;;;;;6151611;23;20089;-85
2022/08/10 13:14:10;;;;;;;0.55;0.28;;;33.80;48.10;;;;;;6150424;23;20010;-85
2022/08/10 13:16:37;;;;;;;0.10;0.10;;;33.60;48.50;;;;;;6152851;23;20002;-83
2022/08/10 13:19:04;;;;;;;0.60;0.30;;;33.80;48.00;;;;;;6127299;23;20009;-83
2022/08/10 13:21:34;;;;;;;1.95;0.30;;;33.60;47.40;;;;;;6152134;23;20065;-83
2022/08/10 13:24:06;;;;;;;0.50;0.30;;;33.80;47.90;;;;;;6126709;23;20036;-83
2022/08/10 13:26:38;;;;;;;0.30;0.10;;;33.80;47.70;;;;;;6153210;23;20002;-83
2022/08/10 13:29:12;;;;;;;0.80;0.30;;;34.00;47.30;;;;;;6153546;23;20008;-83